createdAt,value
2018-12-18T00:01:36.695Z,1.80
2018-12-18T00:04:06.300Z,1.80
2018-12-18T00:06:35.874Z,1.80
2018-12-18T00:09:06.799Z,1.80
2018-12-18T00:11:36.468Z,1.90
2018-12-18T00:14:06.091Z,2.00
2018-12-18T00:16:35.716Z,2.00
2018-12-18T00:19:05.380Z,2.00
2018-12-18T00:21:35.003Z,2.10
2018-12-18T00:24:04.623Z,2.10
2018-12-18T00:26:34.308Z,2.20
2018-12-18T00:29:03.903Z,2.30
2018-12-18T00:31:35.375Z,2.30
2018-12-18T00:34:04.989Z,2.40
2018-12-18T00:36:34.573Z,2.40
2018-12-18T00:39:04.599Z,2.40
2018-12-18T00:41:34.222Z,2.40
2018-12-18T00:44:04.130Z,2.40
2018-12-18T00:46:33.766Z,2.30
2018-12-18T00:49:03.364Z,2.30
2018-12-18T00:51:33.083Z,2.20
2018-12-18T00:54:02.770Z,2.20
2018-12-18T00:56:32.382Z,2.20
2018-12-18T00:59:01.976Z,2.20
2018-12-18T01:01:31.605Z,2.10
2018-12-18T01:04:01.188Z,2.10
2018-12-18T01:06:31.211Z,2.10
2018-12-18T01:09:00.877Z,2.10
2018-12-18T01:11:30.473Z,2.00
2018-12-18T01:14:00.086Z,1.90
2018-12-18T01:16:29.766Z,1.90
2018-12-18T01:18:59.669Z,1.90
2018-12-18T01:21:29.331Z,1.90
2018-12-18T01:23:58.962Z,1.90
2018-12-18T01:26:28.577Z,1.90
2018-12-18T01:28:59.559Z,1.90
2018-12-18T01:31:29.202Z,1.90
2018-12-18T01:33:59.451Z,1.90
2018-12-18T01:36:28.365Z,1.80
2018-12-18T01:38:58.234Z,1.80
2018-12-18T01:41:27.823Z,1.80
2018-12-18T01:43:57.464Z,1.80
2018-12-18T01:46:27.063Z,1.80
2018-12-18T01:48:56.633Z,1.80
2018-12-18T01:51:26.255Z,1.80
2018-12-18T01:53:55.837Z,1.80
2018-12-18T01:56:25.387Z,1.80
2018-12-18T01:58:54.987Z,1.80
2018-12-18T02:01:25.137Z,1.80
2018-12-18T02:03:54.757Z,1.80
2018-12-18T02:06:24.322Z,1.70
2018-12-18T02:08:53.930Z,1.70
2018-12-18T02:11:23.498Z,1.60
2018-12-18T02:13:53.111Z,1.60
2018-12-18T02:16:22.690Z,1.60
2018-12-18T02:18:52.297Z,1.60
2018-12-18T02:21:21.881Z,1.60
2018-12-18T02:23:51.449Z,1.60
2018-12-18T02:26:21.069Z,1.60
2018-12-18T02:28:50.686Z,1.60
2018-12-18T02:31:20.267Z,1.60
2018-12-18T02:33:49.868Z,1.60
2018-12-18T02:36:19.450Z,1.70
2018-12-18T02:38:49.045Z,1.80
2018-12-18T02:41:18.619Z,1.80
2018-12-18T02:43:48.223Z,1.80
2018-12-18T02:46:17.802Z,1.90
2018-12-18T02:48:47.429Z,1.90
2018-12-18T02:51:17.017Z,1.90
2018-12-18T02:53:46.580Z,2.00
2018-12-18T02:56:16.193Z,2.10
2018-12-18T02:58:45.777Z,2.10
2018-12-18T03:01:15.363Z,2.20
2018-12-18T03:03:44.962Z,2.20
2018-12-18T03:06:14.579Z,2.30
2018-12-18T03:08:44.211Z,2.30
2018-12-18T03:11:18.041Z,2.30
2018-12-18T03:13:47.841Z,2.40
2018-12-18T03:16:17.425Z,2.40
2018-12-18T03:18:47.037Z,2.40
2018-12-18T03:21:17.122Z,2.40
2018-12-18T03:23:46.707Z,2.30
2018-12-18T03:26:16.326Z,2.30
2018-12-18T03:28:45.915Z,2.40
2018-12-18T03:31:15.546Z,2.40
2018-12-18T03:33:45.112Z,2.40
2018-12-18T03:36:14.705Z,2.40
2018-12-18T03:38:44.296Z,2.40
2018-12-18T03:41:13.886Z,2.60
2018-12-18T03:43:43.440Z,2.60
2018-12-18T03:46:13.116Z,2.50
2018-12-18T03:48:42.753Z,2.60
2018-12-18T03:51:12.357Z,2.60
2018-12-18T03:53:41.935Z,2.60
2018-12-18T03:56:11.506Z,2.60
2018-12-18T03:58:41.071Z,2.60
2018-12-18T04:01:10.675Z,2.60
2018-12-18T04:03:40.282Z,2.60
2018-12-18T04:06:09.890Z,2.70
2018-12-18T04:08:39.486Z,2.70
2018-12-18T04:11:09.078Z,2.70
2018-12-18T04:13:38.662Z,2.70
2018-12-18T04:16:08.278Z,2.70
2018-12-18T04:18:37.853Z,2.70
2018-12-18T04:21:08.700Z,2.70
2018-12-18T04:23:38.296Z,2.70
2018-12-18T04:26:07.902Z,2.70
2018-12-18T04:28:37.478Z,2.70
2018-12-18T04:31:08.338Z,2.70
2018-12-18T04:33:37.914Z,2.70
2018-12-18T04:36:07.543Z,2.70
2018-12-18T04:38:37.147Z,2.70
2018-12-18T04:41:07.995Z,2.70
2018-12-18T04:43:37.575Z,2.70
2018-12-18T04:46:07.187Z,2.80
2018-12-18T04:48:36.840Z,2.80
2018-12-18T04:51:06.404Z,2.90
2018-12-18T04:53:37.954Z,2.90
2018-12-18T04:56:07.531Z,2.90
2018-12-18T04:58:37.133Z,2.90
2018-12-18T05:01:06.794Z,2.90
2018-12-18T05:03:36.357Z,2.90
2018-12-18T05:06:05.967Z,2.90
2018-12-18T05:08:35.595Z,2.90
2018-12-18T05:11:05.276Z,2.90
2018-12-18T05:13:34.891Z,2.90
2018-12-18T05:16:04.462Z,2.80
2018-12-18T05:18:34.131Z,2.90
2018-12-18T05:21:03.769Z,2.90
2018-12-18T05:23:33.447Z,2.90
2018-12-18T05:26:03.055Z,2.90
2018-12-18T05:28:32.662Z,2.90
2018-12-18T05:31:02.279Z,2.90
2018-12-18T05:33:31.877Z,2.90
2018-12-18T05:36:01.460Z,2.80
2018-12-18T05:38:31.094Z,2.90
2018-12-18T05:41:00.677Z,2.90
2018-12-18T05:43:30.286Z,2.90
2018-12-18T05:45:59.863Z,2.90
2018-12-18T05:48:30.673Z,2.90
2018-12-18T05:51:00.289Z,2.90
2018-12-18T05:53:29.887Z,2.80
2018-12-18T05:55:59.570Z,2.80
2018-12-18T05:58:29.174Z,2.80
2018-12-18T06:00:58.906Z,2.80
2018-12-18T06:03:28.497Z,2.70
2018-12-18T06:05:58.079Z,2.70
2018-12-18T06:08:27.677Z,2.70
2018-12-18T06:10:57.273Z,2.70
2018-12-18T06:13:26.851Z,2.70
2018-12-18T06:15:56.522Z,2.70
2018-12-18T06:18:26.149Z,2.70
2018-12-18T06:20:55.786Z,2.70
2018-12-18T06:23:25.405Z,2.70
2018-12-18T06:25:55.014Z,2.70
2018-12-18T06:28:24.655Z,2.70
2018-12-18T06:30:54.239Z,2.70
2018-12-18T06:33:23.842Z,2.70
2018-12-18T06:35:53.488Z,2.70
2018-12-18T06:38:23.314Z,2.70
2018-12-18T06:40:52.889Z,2.80
2018-12-18T06:43:22.558Z,2.80
2018-12-18T06:45:52.224Z,2.80
2018-12-18T06:48:21.803Z,2.90
2018-12-18T06:50:51.392Z,2.90
2018-12-18T06:53:22.300Z,2.90
2018-12-18T06:55:51.890Z,2.90
2018-12-18T06:58:21.475Z,2.90
2018-12-18T07:00:51.116Z,2.80
2018-12-18T07:03:20.722Z,2.80
2018-12-18T07:05:54.017Z,2.80
2018-12-18T07:08:23.575Z,2.90
2018-12-18T07:10:53.202Z,2.90
2018-12-18T07:13:22.791Z,2.90
2018-12-18T07:15:52.372Z,3.00
2018-12-18T07:18:22.018Z,3.00
2018-12-18T07:20:51.626Z,3.10
2018-12-18T07:23:21.185Z,3.10
2018-12-18T07:25:50.783Z,3.10
2018-12-18T07:28:21.581Z,3.10
2018-12-18T07:30:51.147Z,3.10
2018-12-18T07:33:20.772Z,3.00
2018-12-18T07:35:50.366Z,3.00
2018-12-18T07:38:19.909Z,3.00
2018-12-18T07:40:50.711Z,3.00
2018-12-18T07:43:20.349Z,3.10
2018-12-18T07:45:49.926Z,3.10
2018-12-18T07:48:20.816Z,3.10
2018-12-18T07:50:50.420Z,3.20
2018-12-18T07:53:20.000Z,3.20
2018-12-18T07:55:50.966Z,3.30
2018-12-18T07:58:20.531Z,3.40
2018-12-18T08:00:50.109Z,3.40
2018-12-18T08:03:19.738Z,3.40
2018-12-18T08:05:49.313Z,3.40
2018-12-18T08:08:19.104Z,3.30
2018-12-18T08:10:48.666Z,3.30
2018-12-18T08:13:19.523Z,3.20
2018-12-18T08:15:49.085Z,3.20
2018-12-18T08:19:48.218Z,3.20
2018-12-18T08:22:17.798Z,3.10
2018-12-18T08:24:47.570Z,3.00
2018-12-18T08:27:17.190Z,2.90
2018-12-18T08:29:46.779Z,2.90
2018-12-18T08:32:16.397Z,2.90
2018-12-18T08:34:45.987Z,2.90
2018-12-18T08:37:15.597Z,3.00
2018-12-18T08:39:45.259Z,3.00
2018-12-18T08:42:14.849Z,3.00
2018-12-18T08:44:44.436Z,3.00
2018-12-18T08:47:14.079Z,3.00
2018-12-18T08:49:43.675Z,3.00
2018-12-18T08:52:13.300Z,2.90
2018-12-18T08:54:44.189Z,2.90
2018-12-18T08:57:13.829Z,2.90
2018-12-18T08:59:43.463Z,2.90
2018-12-18T09:02:13.043Z,2.90
2018-12-18T09:04:42.693Z,2.80
2018-12-18T09:07:12.302Z,2.70
2018-12-18T09:09:41.973Z,2.70
2018-12-18T09:12:14.331Z,2.70
2018-12-18T09:14:52.179Z,2.60
2018-12-18T09:17:27.245Z,2.60
2018-12-18T09:19:56.847Z,2.50
2018-12-18T09:22:26.545Z,2.40
2018-12-18T09:24:56.164Z,2.40
2018-12-18T09:27:25.765Z,2.40
2018-12-18T09:29:55.417Z,2.50
2018-12-18T09:32:25.107Z,2.60
2018-12-18T09:34:54.729Z,2.80
2018-12-18T09:37:24.304Z,2.90
2018-12-18T09:39:55.144Z,3.00
2018-12-18T09:42:30.077Z,3.10
2018-12-18T09:44:59.693Z,3.20
2018-12-18T09:47:29.261Z,3.40
2018-12-18T09:49:58.873Z,3.50
2018-12-18T09:52:28.490Z,3.70
2018-12-18T09:54:58.094Z,3.70
2018-12-18T09:57:33.118Z,3.80
2018-12-18T10:00:02.747Z,3.80
2018-12-18T10:02:32.555Z,3.90
2018-12-18T10:05:02.197Z,3.90
2018-12-18T10:07:31.896Z,4.00
2018-12-18T10:10:01.623Z,4.10
2018-12-18T10:12:39.077Z,4.20
2018-12-18T10:15:08.936Z,4.30
2018-12-18T10:17:39.818Z,4.30
2018-12-18T10:20:11.923Z,4.30
2018-12-18T10:22:41.676Z,4.30
2018-12-18T10:25:11.326Z,4.20
2018-12-18T10:27:40.989Z,4.10
2018-12-18T10:30:10.982Z,3.90
2018-12-18T10:32:40.294Z,3.70
2018-12-18T10:35:09.954Z,3.50
2018-12-18T10:37:39.557Z,3.40
2018-12-18T10:40:10.385Z,3.30
2018-12-18T10:42:39.986Z,3.30
2018-12-18T10:45:14.897Z,3.40
2018-12-18T10:47:44.471Z,3.40
2018-12-18T10:50:15.370Z,3.40
2018-12-18T10:52:44.956Z,3.30
2018-12-18T10:55:14.540Z,3.30
2018-12-18T10:57:44.122Z,3.40
2018-12-18T11:00:18.905Z,3.60
2018-12-18T11:02:48.570Z,3.70
2018-12-18T11:05:18.130Z,3.90
2018-12-18T11:07:47.708Z,4.10
2018-12-18T11:10:17.343Z,4.30
2018-12-18T11:12:53.884Z,4.40
2018-12-18T11:15:23.495Z,4.30
2018-12-18T11:17:53.069Z,4.20
2018-12-18T11:20:22.702Z,4.20
2018-12-18T11:22:52.345Z,4.20
2018-12-18T11:25:21.994Z,4.20
2018-12-18T11:27:51.590Z,4.30
2018-12-18T11:30:21.209Z,4.40
2018-12-18T11:32:50.949Z,4.30
2018-12-18T11:35:20.534Z,4.30
2018-12-18T11:37:51.494Z,4.30
2018-12-18T11:40:21.123Z,4.20
2018-12-18T11:42:50.795Z,4.20
2018-12-18T11:45:20.454Z,4.30
2018-12-18T11:47:50.035Z,4.30
2018-12-18T11:50:19.622Z,4.40
2018-12-18T11:52:50.503Z,4.50
2018-12-18T11:55:20.105Z,4.60
2018-12-18T11:57:50.817Z,4.70
2018-12-18T12:00:20.519Z,4.70
2018-12-18T12:02:50.386Z,4.60
2018-12-18T12:05:19.964Z,4.60
2018-12-18T12:07:49.558Z,4.40
2018-12-18T12:10:19.186Z,4.30
2018-12-18T12:12:48.781Z,4.20
2018-12-18T12:15:18.391Z,4.20
2018-12-18T12:17:47.945Z,4.20
2018-12-18T12:20:17.588Z,4.10
2018-12-18T12:22:47.205Z,4.00
2018-12-18T12:25:16.779Z,3.80
2018-12-18T12:27:51.654Z,3.80
2018-12-18T12:30:21.239Z,3.70
2018-12-18T12:32:50.845Z,3.50
2018-12-18T12:35:20.420Z,3.50
2018-12-18T12:37:50.025Z,3.30
2018-12-18T12:40:19.706Z,3.20
2018-12-18T12:42:49.292Z,3.10
2018-12-18T12:45:18.845Z,3.00
2018-12-18T12:47:49.678Z,2.90
2018-12-18T12:50:19.352Z,2.90
2018-12-18T12:52:50.257Z,2.80
2018-12-18T12:55:19.838Z,2.80
2018-12-18T12:57:49.494Z,2.70
2018-12-18T13:00:19.087Z,2.70
2018-12-18T13:02:51.178Z,2.80
2018-12-18T13:05:20.796Z,2.80
2018-12-18T13:07:50.373Z,2.90
2018-12-18T13:10:20.007Z,2.90
2018-12-18T13:12:49.593Z,2.90
2018-12-18T13:15:19.249Z,2.90
2018-12-18T13:17:48.850Z,3.00
2018-12-18T13:20:18.433Z,3.00
2018-12-18T13:22:49.357Z,3.00
2018-12-18T13:25:18.989Z,3.00
2018-12-18T13:27:48.593Z,3.00
2018-12-18T13:30:19.342Z,3.10
2018-12-18T13:32:49.022Z,3.10
2018-12-18T13:35:18.593Z,3.10
2018-12-18T13:37:48.227Z,3.10
2018-12-18T13:40:18.138Z,3.10
2018-12-18T13:42:47.714Z,3.20
2018-12-18T13:45:17.292Z,3.10
2018-12-18T13:47:46.955Z,3.10
2018-12-18T13:50:16.552Z,3.10
2018-12-18T13:52:46.164Z,3.10
2018-12-18T13:55:19.565Z,3.00
2018-12-18T13:57:49.162Z,3.00
2018-12-18T14:00:18.739Z,2.90
2018-12-18T14:02:48.997Z,2.90
2018-12-18T14:05:18.586Z,2.90
2018-12-18T14:07:48.246Z,2.80
2018-12-18T14:10:17.981Z,2.70
2018-12-18T14:12:52.966Z,2.60
2018-12-18T14:15:22.616Z,2.50
2018-12-18T14:17:52.233Z,2.30
2018-12-18T14:20:21.846Z,2.20
2018-12-18T14:22:51.502Z,2.10
2018-12-18T14:25:21.109Z,2.00
2018-12-18T14:27:50.728Z,2.00
2018-12-18T14:30:20.930Z,1.90
2018-12-18T14:32:50.564Z,1.90
2018-12-18T14:35:20.258Z,1.80
2018-12-18T14:37:49.850Z,1.80
2018-12-18T14:40:19.898Z,1.80
2018-12-18T14:42:49.486Z,1.90
2018-12-18T14:45:19.112Z,1.90
2018-12-18T14:47:48.694Z,1.90
2018-12-18T14:50:18.293Z,1.90
2018-12-18T14:52:49.125Z,1.90
2018-12-18T14:55:18.734Z,2.00
2018-12-18T14:57:48.376Z,2.00
2018-12-18T15:00:17.974Z,2.00
2018-12-18T15:02:47.573Z,2.00
2018-12-18T15:05:17.793Z,2.00
2018-12-18T15:07:46.829Z,2.00
2018-12-18T15:10:16.493Z,2.00
2018-12-18T15:12:53.562Z,2.10
2018-12-18T15:15:23.133Z,2.20
2018-12-18T15:17:52.763Z,2.20
2018-12-18T15:20:22.357Z,2.10
2018-12-18T15:22:53.113Z,2.00
2018-12-18T15:25:22.768Z,1.90
2018-12-18T15:27:52.334Z,1.80
2018-12-18T15:30:26.122Z,1.80
2018-12-18T15:32:52.886Z,1.90
2018-12-18T15:35:22.494Z,1.90
2018-12-18T15:37:52.143Z,1.90
2018-12-18T15:40:21.785Z,1.90
2018-12-18T15:42:51.386Z,1.80
2018-12-18T15:45:20.998Z,1.80
2018-12-18T15:47:50.605Z,1.80
2018-12-18T15:50:23.926Z,1.80
2018-12-18T15:52:53.528Z,1.80
2018-12-18T15:55:24.474Z,1.80
2018-12-18T15:57:54.098Z,1.80
2018-12-18T16:00:24.949Z,1.70
2018-12-18T16:02:54.686Z,1.70
2018-12-18T16:05:26.894Z,1.70
2018-12-18T16:07:56.538Z,1.60
2018-12-18T16:10:26.155Z,1.60
2018-12-18T16:12:56.954Z,1.60
2018-12-18T16:15:28.928Z,1.60
2018-12-18T16:17:58.577Z,1.60
2018-12-18T16:20:28.189Z,1.60
2018-12-18T16:22:57.993Z,1.60
2018-12-18T16:25:27.674Z,1.60
2018-12-18T16:27:57.269Z,1.60
2018-12-18T16:30:26.977Z,1.60
2018-12-18T16:32:56.632Z,1.60
2018-12-18T16:35:26.298Z,1.60
2018-12-18T16:37:56.588Z,1.60
2018-12-18T16:40:26.191Z,1.50
2018-12-18T16:42:55.886Z,1.50
2018-12-18T16:45:25.506Z,1.50
2018-12-18T16:47:56.350Z,1.60
2018-12-18T16:50:26.691Z,1.60
2018-12-18T16:52:55.558Z,1.60
2018-12-18T16:55:25.219Z,1.70
2018-12-18T16:57:54.816Z,1.70
2018-12-18T17:00:25.784Z,1.70
2018-12-18T17:02:55.451Z,1.70
2018-12-18T17:05:25.138Z,1.70
2018-12-18T17:07:54.765Z,1.70
2018-12-18T17:10:24.404Z,1.70
2018-12-18T17:12:58.086Z,1.70
2018-12-18T17:15:27.669Z,1.70
2018-12-18T17:17:58.513Z,1.70
2018-12-18T17:20:28.122Z,1.70
2018-12-18T17:22:57.758Z,1.70
2018-12-18T17:25:27.502Z,1.70
2018-12-18T17:27:57.105Z,1.70
2018-12-18T17:30:26.717Z,1.70
2018-12-18T17:32:56.339Z,1.70
2018-12-18T17:35:26.069Z,1.70
2018-12-18T17:37:55.711Z,1.70
2018-12-18T17:40:26.708Z,1.70
2018-12-18T17:42:56.622Z,1.70
2018-12-18T17:45:26.272Z,1.70
2018-12-18T17:47:58.394Z,1.70
2018-12-18T17:50:27.987Z,1.70
2018-12-18T17:52:57.646Z,1.70
2018-12-18T17:55:29.892Z,1.70
2018-12-18T17:57:59.839Z,1.80
2018-12-18T18:00:29.515Z,1.80
2018-12-18T18:02:59.126Z,1.90
2018-12-18T18:05:30.242Z,2.00
2018-12-18T18:07:59.851Z,2.00
2018-12-18T18:10:29.490Z,2.10
2018-12-18T18:13:00.536Z,2.10
2018-12-18T18:15:30.168Z,2.10
2018-12-18T18:17:59.811Z,2.20
2018-12-18T18:20:29.624Z,2.20
2018-12-18T18:22:59.233Z,2.20
2018-12-18T18:25:29.005Z,2.30
2018-12-18T18:27:58.613Z,2.30
2018-12-18T18:30:28.636Z,2.30
2018-12-18T18:32:58.346Z,2.30
2018-12-18T18:35:28.075Z,2.40
2018-12-18T18:37:57.716Z,2.40
2018-12-18T18:40:28.760Z,2.50
2018-12-18T18:42:58.538Z,2.50
2018-12-18T18:45:28.246Z,2.60
2018-12-18T18:47:59.699Z,2.60
2018-12-18T18:50:29.414Z,2.60
2018-12-18T18:53:00.381Z,2.50
2018-12-18T18:55:30.048Z,2.60
2018-12-18T18:58:00.938Z,2.60
2018-12-18T19:00:30.571Z,2.60
2018-12-18T19:03:00.340Z,2.60
2018-12-18T19:05:31.308Z,2.50
2018-12-18T19:08:00.994Z,2.40
2018-12-18T19:10:33.132Z,2.20
2018-12-18T19:13:02.793Z,2.20
2018-12-18T19:15:32.705Z,2.20
2018-12-18T19:18:05.922Z,2.20
2018-12-18T19:20:35.632Z,2.10
2018-12-18T19:23:13.515Z,2.10
2018-12-18T19:25:43.119Z,2.00
2018-12-18T19:28:14.090Z,1.90
2018-12-18T19:30:43.764Z,1.80
2018-12-18T19:33:13.502Z,1.80
2018-12-18T19:35:45.967Z,1.70
2018-12-18T19:38:15.617Z,1.60
2018-12-18T19:40:45.249Z,1.60
2018-12-18T19:43:15.247Z,1.60
2018-12-18T19:45:45.154Z,1.50
2018-12-18T19:48:15.023Z,1.60
2018-12-18T19:50:48.371Z,1.70
2018-12-18T19:53:18.657Z,1.80
2018-12-18T19:55:48.918Z,1.90
2018-12-18T19:58:20.414Z,1.90
2018-12-18T20:00:52.195Z,1.90
2018-12-18T20:03:23.121Z,2.00
2018-12-18T20:05:52.979Z,2.00
2018-12-18T20:08:23.915Z,2.00
2018-12-18T20:10:53.555Z,2.00
2018-12-18T20:13:23.212Z,2.00
2018-12-18T20:15:55.008Z,2.10
2018-12-18T20:18:24.671Z,2.10
2018-12-18T20:20:55.557Z,2.10
2018-12-18T20:23:27.713Z,2.10
2018-12-18T20:25:59.516Z,2.10
2018-12-18T20:28:29.839Z,2.10
2018-12-18T20:30:59.769Z,2.10
2018-12-18T20:33:29.519Z,2.10
2018-12-18T20:36:00.822Z,2.10
2018-12-18T20:38:31.169Z,2.00
2018-12-18T20:41:00.819Z,2.00
2018-12-18T20:43:30.526Z,2.00
2018-12-18T20:46:00.271Z,2.00
2018-12-18T20:48:30.269Z,2.00
2018-12-18T20:51:01.089Z,2.00
2018-12-18T20:53:31.371Z,2.10
2018-12-18T20:56:03.373Z,2.10
2018-12-18T20:58:34.323Z,2.10
2018-12-18T21:01:04.258Z,2.10
2018-12-18T21:03:33.975Z,2.10
2018-12-18T21:06:03.892Z,2.10
2018-12-18T21:08:33.530Z,2.10
2018-12-18T21:11:04.470Z,2.10
2018-12-18T21:13:36.273Z,2.10
2018-12-18T21:16:07.423Z,2.20
2018-12-18T21:18:37.451Z,2.20
2018-12-18T21:21:07.270Z,2.30
2018-12-18T21:23:37.249Z,2.30
2018-12-18T21:26:07.301Z,2.30
2018-12-18T21:28:38.474Z,2.30
2018-12-18T21:31:08.146Z,2.30
2018-12-18T21:33:38.971Z,2.20
2018-12-18T21:36:08.669Z,2.20
2018-12-18T21:38:38.484Z,2.20
2018-12-18T21:41:10.723Z,2.20
2018-12-18T21:43:46.005Z,2.10
2018-12-18T21:46:16.922Z,2.10
2018-12-18T21:48:46.664Z,2.10
2018-12-18T21:51:18.655Z,2.00
2018-12-18T21:53:48.532Z,2.00
2018-12-18T21:56:20.055Z,1.90
2018-12-18T21:58:51.062Z,1.80
2018-12-18T22:01:22.334Z,1.80
2018-12-18T22:03:54.845Z,1.80
2018-12-18T22:06:24.521Z,1.80
2018-12-18T22:08:54.205Z,1.80
2018-12-18T22:11:24.965Z,1.80
2018-12-18T22:13:54.832Z,1.80
2018-12-18T22:16:25.846Z,1.80
2018-12-18T22:18:58.999Z,1.80
2018-12-18T22:21:29.831Z,1.70
2018-12-18T22:24:00.842Z,1.70
2018-12-18T22:26:30.815Z,1.70
2018-12-18T22:29:01.088Z,1.80
2018-12-18T22:31:30.755Z,1.80
2018-12-18T22:34:02.242Z,1.70
2018-12-18T22:36:34.073Z,1.70
2018-12-18T22:39:05.322Z,1.70
2018-12-18T22:41:35.266Z,1.80
2018-12-18T22:44:05.208Z,1.80
2018-12-18T22:46:36.122Z,1.70
2018-12-18T22:49:06.031Z,1.80
2018-12-18T22:51:37.117Z,1.70
2018-12-18T22:54:06.890Z,1.80
2018-12-18T22:56:36.590Z,1.80
2018-12-18T22:59:08.530Z,1.80
2018-12-18T23:01:45.122Z,1.80
2018-12-18T23:04:15.460Z,1.80
2018-12-18T23:06:45.809Z,1.90
2018-12-18T23:09:16.416Z,1.90
2018-12-18T23:11:46.933Z,1.90
2018-12-18T23:14:15.798Z,1.90
2018-12-18T23:16:46.125Z,2.00
2018-12-18T23:19:15.878Z,2.00
2018-12-18T23:21:46.519Z,2.00
2018-12-18T23:24:19.199Z,2.10
2018-12-18T23:26:49.932Z,2.10
2018-12-18T23:29:20.841Z,2.10
2018-12-18T23:31:50.448Z,2.10
2018-12-18T23:34:21.373Z,2.10
2018-12-18T23:36:49.773Z,2.00
2018-12-18T23:39:19.444Z,2.10
2018-12-18T23:41:49.042Z,2.00
2018-12-18T23:44:18.746Z,2.00
2018-12-18T23:46:48.341Z,2.00
2018-12-18T23:49:19.174Z,2.00
2018-12-18T23:51:48.778Z,2.10
2018-12-18T23:54:18.448Z,2.10
2018-12-18T23:56:48.034Z,2.10
2018-12-18T23:59:17.696Z,2.10
